Portada
METAR-TAF:

METAR-TAF

Aeropuertos :

Capo Mele

Andora, Italia

latitud: 43-57N, longitud: 008-10E, altitud: 220 m

Observación

El informe se hizo hace 1 hora y 2 minutos, a las 06:55 UTC
Viento 12 kt del norte
Temperatura 8°C
Humedad 53%
Presión 1017 hPa
Visibilidad 10 km o más
Escasas nubes a una altura de 2000 ft

METAR: LIMU 160655Z 01012KT 9999 FEW020 08/M01 Q1017 RMK SCT SCT090 QUK 2 QUL 1 E VIS MAR 20 KM VIS MIN 9999

Hora: 09:57 (07:57 UTC)


TAF: falta

Observaciones y pronósticos meteorológicos de más de 4000 aeropuertos (mensajes METAR y TAF).

Los puntos amarillos y rojos representan las estaciones disponibles.

Ponga el ratón en el punto deseado para ver el nombre de la estación.

Haga clic para ver las observaciones y los pronósticos meteorológicos.

Para cambiar el mapa : haga clic en los botones verdes con una cruz de color negro para hacer un zoom, en el botón verde con un guión para alejar o en las flechas verdes para mapas adyacentes.


METAR-TAF: